Time;durP1;ratioP1;P1;durP2;ratioP2;P2;SDS_P1;SDS_P2;PMS_P1;PMS_P2;Temp;Humidity;BMP_temperature;BMP_pressure;BME280_temperature;BME280_humidity;BME280_pressure;Samples;Min_cycle;Max_cycle;Signal;HPM_P1;HPM_P2
2023/08/30 00:00:07;;;;;;;7.30;2.50;;;16.20;99.90;;;;;;5083901;28;20421;-85
2023/08/30 00:02:34;;;;;;;5.97;2.08;;;16.10;99.90;;;;;;5082666;28;20165;-83
2023/08/30 00:05:01;;;;;;;6.97;2.00;;;15.90;99.90;;;;;;5087905;28;20478;-82
2023/08/30 00:07:28;;;;;;;6.28;2.20;;;15.70;99.90;;;;;;5087280;28;20059;-84
2023/08/30 00:09:54;;;;;;;6.45;2.10;;;15.60;99.90;;;;;;5081911;28;20058;-80
2023/08/30 00:12:21;;;;;;;6.40;2.20;;;15.40;99.90;;;;;;5093730;28;20040;-81
2023/08/30 00:14:48;;;;;;;6.43;2.40;;;15.40;99.90;;;;;;5075296;28;20143;-82
2023/08/30 00:17:16;;;;;;;11.20;2.20;;;15.30;99.90;;;;;;5084218;28;20105;-82
2023/08/30 00:19:46;;;;;;;7.07;2.70;;;15.30;99.90;;;;;;5081854;28;20439;-85
2023/08/30 00:22:15;;;;;;;8.93;2.55;;;15.20;99.90;;;;;;5096212;28;20272;-82
2023/08/30 00:24:42;;;;;;;10.05;2.22;;;15.10;99.90;;;;;;5096711;28;20063;-82
2023/08/30 00:27:10;;;;;;;7.47;2.38;;;15.00;99.90;;;;;;5095346;28;20083;-83
2023/08/30 00:29:37;;;;;;;8.32;2.80;;;14.90;99.90;;;;;;5083794;28;20044;-84
2023/08/30 00:32:03;;;;;;;6.93;2.35;;;14.80;99.90;;;;;;5079878;28;20097;-82
2023/08/30 00:34:30;;;;;;;11.63;2.42;;;14.80;99.90;;;;;;5096006;28;20044;-83
2023/08/30 00:36:59;;;;;;;8.10;2.60;;;14.80;99.90;;;;;;5079370;28;20052;-80
2023/08/30 00:39:26;;;;;;;5.32;2.03;;;14.90;99.90;;;;;;5084638;28;20380;-82
2023/08/30 00:41:52;;;;;;;7.07;2.50;;;14.90;99.90;;;;;;5094055;28;20109;-82
2023/08/30 00:44:19;;;;;;;10.27;1.98;;;14.80;99.90;;;;;;5076292;28;20086;-81
2023/08/30 00:46:46;;;;;;;5.00;1.98;;;14.90;99.90;;;;;;5091139;28;20040;-81
2023/08/30 00:49:13;;;;;;;6.68;2.15;;;14.90;99.90;;;;;;5080602;28;20040;-83
2023/08/30 00:51:39;;;;;;;6.40;1.98;;;14.90;99.90;;;;;;5085390;28;20136;-80
2023/08/30 00:54:06;;;;;;;5.20;2.05;;;14.80;99.90;;;;;;5074222;28;20070;-80
2023/08/30 00:56:33;;;;;;;6.38;2.00;;;14.90;99.90;;;;;;5072108;28;20052;-82
2023/08/30 00:59:00;;;;;;;7.50;1.90;;;14.90;99.90;;;;;;5074646;28;20044;-83
2023/08/30 01:01:26;;;;;;;5.85;2.00;;;14.90;99.90;;;;;;5077875;28;20120;-82
2023/08/30 01:03:53;;;;;;;11.68;2.15;;;14.80;99.90;;;;;;5074940;28;20052;-81
2023/08/30 01:06:20;;;;;;;10.00;2.03;;;14.90;99.90;;;;;;5090677;28;20166;-84
2023/08/30 01:08:51;;;;;;;7.75;1.92;;;14.90;99.90;;;;;;5086539;28;20044;-84
2023/08/30 01:11:18;;;;;;;7.88;1.95;;;14.90;99.90;;;;;;5076341;28;20033;-84
2023/08/30 01:13:45;;;;;;;7.57;1.80;;;15.00;99.90;;;;;;5093788;28;20062;-80
2023/08/30 01:16:12;;;;;;;10.15;1.85;;;15.00;99.90;;;;;;5094661;28;20075;-82
2023/08/30 01:18:41;;;;;;;7.05;2.00;;;15.00;99.90;;;;;;5081595;28;20097;-82
2023/08/30 01:21:08;;;;;;;6.63;1.98;;;15.00;99.90;;;;;;5077246;28;20036;-84
2023/08/30 01:23:34;;;;;;;7.40;2.03;;;14.90;99.90;;;;;;5094666;28;20063;-81
2023/08/30 01:26:01;;;;;;;7.35;2.20;;;14.90;99.90;;;;;;5074720;28;20063;-84
2023/08/30 01:28:30;;;;;;;5.75;1.83;;;14.90;99.90;;;;;;5091600;28;20047;-81
2023/08/30 01:30:57;;;;;;;5.70;1.92;;;14.90;99.90;;;;;;5084901;28;20056;-80
2023/08/30 01:33:27;;;;;;;6.45;1.73;;;14.80;99.90;;;;;;5087547;28;20047;-82
2023/08/30 01:35:57;;;;;;;5.22;1.80;;;14.80;99.90;;;;;;5082434;28;20128;-80
2023/08/30 01:38:24;;;;;;;5.72;1.80;;;14.80;99.90;;;;;;5086369;28;20060;-79
2023/08/30 01:40:51;;;;;;;3.90;1.52;;;14.80;99.90;;;;;;5087667;28;20048;-83
2023/08/30 01:43:18;;;;;;;5.72;1.75;;;14.80;99.90;;;;;;5088486;28;20051;-81
2023/08/30 01:45:45;;;;;;;5.43;2.03;;;14.80;99.90;;;;;;5058218;28;20493;-82
2023/08/30 01:48:12;;;;;;;5.25;1.67;;;14.80;99.90;;;;;;5084390;28;20058;-83
2023/08/30 01:50:39;;;;;;;6.50;2.20;;;14.80;99.90;;;;;;5079749;28;20528;-81
2023/08/30 01:53:06;;;;;;;5.15;1.70;;;14.70;99.90;;;;;;5093275;28;20090;-83
2023/08/30 01:55:32;;;;;;;3.83;1.42;;;14.60;99.90;;;;;;5082506;28;20044;-81
2023/08/30 01:57:59;;;;;;;8.43;2.15;;;14.60;99.90;;;;;;5087561;28;20392;-83
2023/08/30 02:00:26;;;;;;;8.38;1.80;;;14.50;99.90;;;;;;5073224;28;20421;-83
2023/08/30 02:02:53;;;;;;;7.18;2.17;;;14.50;99.90;;;;;;5073484;28;20117;-83
2023/08/30 02:05:19;;;;;;;9.32;2.30;;;14.50;99.90;;;;;;5094138;28;20058;-80
2023/08/30 02:07:47;;;;;;;8.68;2.30;;;14.50;99.90;;;;;;5076296;28;20040;-83
2023/08/30 02:10:16;;;;;;;6.80;2.05;;;14.50;99.90;;;;;;5086837;28;20044;-83
2023/08/30 02:12:43;;;;;;;13.40;2.65;;;14.50;99.90;;;;;;5073997;28;20048;-83
2023/08/30 02:15:10;;;;;;;6.47;2.63;;;14.50;99.90;;;;;;5072657;28;20040;-80
2023/08/30 02:17:38;;;;;;;6.55;2.00;;;14.40;99.90;;;;;;5065169;28;20041;-84
2023/08/30 02:20:06;;;;;;;9.32;2.10;;;14.30;99.90;;;;;;5072325;28;20044;-83
2023/08/30 02:22:33;;;;;;;5.32;1.80;;;14.30;99.90;;;;;;5083943;28;20044;-84
2023/08/30 02:25:04;;;;;;;7.22;2.22;;;14.20;99.90;;;;;;5079518;28;20049;-83
2023/08/30 02:27:31;;;;;;;6.47;2.00;;;14.10;99.90;;;;;;5084608;28;20040;-83
2023/08/30 02:29:58;;;;;;;8.23;2.58;;;14.00;99.90;;;;;;5074271;28;20124;-82
2023/08/30 02:32:25;;;;;;;7.95;1.90;;;14.00;99.90;;;;;;5073513;28;20072;-84
2023/08/30 02:34:52;;;;;;;9.35;2.25;;;13.90;99.90;;;;;;5086563;28;20459;-83
2023/08/30 02:37:20;;;;;;;8.77;2.10;;;13.80;99.90;;;;;;5094113;28;20355;-81
2023/08/30 02:39:49;;;;;;;6.15;2.08;;;13.80;99.90;;;;;;5092605;28;20067;-84
2023/08/30 02:42:16;;;;;;;6.70;2.67;;;13.80;99.90;;;;;;5072066;28;20414;-82
2023/08/30 02:44:43;;;;;;;5.88;2.08;;;13.80;99.90;;;;;;5084548;28;20052;-80
2023/08/30 02:47:10;;;;;;;9.75;2.08;;;13.80;99.90;;;;;;5081500;28;20060;-82
2023/08/30 02:49:36;;;;;;;8.18;2.22;;;13.80;99.90;;;;;;5095926;28;20125;-81
2023/08/30 02:52:03;;;;;;;11.25;2.47;;;13.70;99.90;;;;;;5056781;28;20041;-83
2023/08/30 02:54:30;;;;;;;9.80;2.17;;;13.80;99.90;;;;;;5059834;28;20094;-81
2023/08/30 02:56:57;;;;;;;8.45;2.38;;;13.70;99.90;;;;;;5034911;28;20091;-83
2023/08/30 02:59:23;;;;;;;6.93;2.10;;;13.70;99.90;;;;;;5073613;28;20127;-84
2023/08/30 03:01:50;;;;;;;7.85;1.85;;;13.60;99.90;;;;;;5067154;28;20047;-81
2023/08/30 03:04:18;;;;;;;8.07;2.10;;;13.60;99.90;;;;;;5062636;28;20048;-80
2023/08/30 03:06:45;;;;;;;12.60;2.20;;;13.60;99.90;;;;;;5059424;28;20047;-83
2023/08/30 03:09:14;;;;;;;7.30;2.17;;;13.60;99.90;;;;;;5060116;28;20056;-83
2023/08/30 03:11:43;;;;;;;8.20;2.22;;;13.60;99.90;;;;;;5043919;28;20372;-80
2023/08/30 03:14:10;;;;;;;8.63;2.25;;;13.60;99.90;;;;;;5059137;28;20040;-81
2023/08/30 03:16:37;;;;;;;9.10;2.25;;;13.50;99.90;;;;;;5059913;28;20040;-83
2023/08/30 03:19:04;;;;;;;9.52;2.13;;;13.40;99.90;;;;;;5059922;28;20040;-82
2023/08/30 03:21:31;;;;;;;8.55;2.20;;;13.40;99.90;;;;;;5059038;28;20055;-83
2023/08/30 03:23:58;;;;;;;6.80;2.35;;;13.40;99.90;;;;;;5052236;28;20099;-80
2023/08/30 03:26:24;;;;;;;5.50;2.10;;;13.40;99.90;;;;;;5053266;28;20463;-82
2023/08/30 03:28:54;;;;;;;10.63;2.35;;;13.30;99.90;;;;;;5059322;28;20410;-84
2023/08/30 03:31:21;;;;;;;5.72;2.28;;;13.30;99.90;;;;;;5043433;28;20461;-83
2023/08/30 03:33:49;;;;;;;6.90;2.28;;;13.30;99.90;;;;;;5058639;28;20060;-80
2023/08/30 03:36:16;;;;;;;8.98;2.40;;;13.20;99.90;;;;;;5049112;28;20382;-84
2023/08/30 03:38:45;;;;;;;7.90;2.55;;;13.20;99.90;;;;;;5039646;28;20045;-81
2023/08/30 03:41:11;;;;;;;8.80;2.20;;;13.10;99.90;;;;;;5039045;28;20048;-84
2023/08/30 03:43:39;;;;;;;6.97;2.10;;;13.10;99.90;;;;;;5055723;28;20055;-81
2023/08/30 03:46:09;;;;;;;6.35;2.30;;;13.00;99.90;;;;;;5051040;28;20102;-84
2023/08/30 03:48:38;;;;;;;7.38;2.03;;;12.90;99.90;;;;;;5036186;28;20131;-83
2023/08/30 03:51:05;;;;;;;7.40;2.50;;;12.90;99.90;;;;;;5070650;28;20052;-82
2023/08/30 03:53:32;;;;;;;9.85;2.15;;;12.80;99.90;;;;;;5078761;28;20040;-82
2023/08/30 03:55:59;;;;;;;6.93;2.30;;;12.80;99.90;;;;;;5082173;28;20033;-81
2023/08/30 04:01:12;;;;;;;6.45;2.40;;;12.70;99.90;;;;;;5092809;28;20055;-84
2023/08/30 04:03:39;;;;;;;7.80;2.13;;;12.60;99.90;;;;;;5079572;28;20040;-83
2023/08/30 04:06:07;;;;;;;8.65;2.75;;;12.60;99.90;;;;;;5079517;28;20048;-83
2023/08/30 04:08:35;;;;;;;12.18;2.78;;;12.60;99.90;;;;;;5094838;28;20050;-83
2023/08/30 04:11:01;;;;;;;7.13;2.50;;;12.50;99.90;;;;;;5096023;28;20051;-83
2023/08/30 04:13:29;;;;;;;8.52;2.38;;;12.50;99.90;;;;;;5095066;28;20044;-84
2023/08/30 04:15:58;;;;;;;7.03;2.10;;;12.40;99.90;;;;;;5067975;28;20533;-83
2023/08/30 04:18:28;;;;;;;9.40;2.33;;;12.40;99.90;;;;;;5095242;28;20114;-81
2023/08/30 04:20:55;;;;;;;10.13;2.30;;;12.40;99.90;;;;;;5084024;28;20052;-80
2023/08/30 04:23:22;;;;;;;7.75;2.28;;;12.30;99.90;;;;;;5090029;28;20406;-82
2023/08/30 04:25:49;;;;;;;6.47;2.28;;;12.30;99.90;;;;;;5084873;28;20071;-80
2023/08/30 04:28:17;;;;;;;7.47;2.10;;;12.20;99.90;;;;;;5075600;28;20092;-83
2023/08/30 04:30:44;;;;;;;10.35;2.10;;;12.20;99.90;;;;;;5079027;28;20452;-83
2023/08/30 04:33:11;;;;;;;13.23;2.72;;;12.20;99.90;;;;;;5078272;28;20097;-82
2023/08/30 04:35:38;;;;;;;5.60;2.30;;;12.10;99.90;;;;;;5078730;28;20040;-84
2023/08/30 04:38:07;;;;;;;8.20;2.50;;;12.10;99.90;;;;;;5083717;28;20040;-80
2023/08/30 04:40:34;;;;;;;9.00;2.40;;;12.00;99.90;;;;;;5076651;28;20032;-84
2023/08/30 04:43:02;;;;;;;11.20;2.45;;;12.00;99.90;;;;;;5084212;28;20109;-82
2023/08/30 04:45:29;;;;;;;9.15;2.65;;;11.90;99.90;;;;;;5089166;28;20052;-82
2023/08/30 04:47:57;;;;;;;5.90;2.30;;;12.00;99.90;;;;;;5067467;28;20040;-84
2023/08/30 04:50:27;;;;;;;11.88;2.65;;;11.90;99.90;;;;;;5087833;28;20186;-83
2023/08/30 04:52:54;;;;;;;7.75;2.55;;;11.90;99.90;;;;;;5076666;28;20139;-82
2023/08/30 04:55:22;;;;;;;9.43;2.47;;;11.90;99.90;;;;;;5085343;28;20071;-80
2023/08/30 04:57:51;;;;;;;6.43;2.00;;;11.90;99.90;;;;;;5089957;28;20051;-83
2023/08/30 05:00:18;;;;;;;9.73;2.00;;;11.80;99.90;;;;;;5083079;28;20055;-85
2023/08/30 05:02:46;;;;;;;8.32;2.35;;;11.80;99.90;;;;;;5077041;28;20044;-80
2023/08/30 05:05:14;;;;;;;8.70;2.17;;;11.70;99.90;;;;;;5082622;28;20044;-83
2023/08/30 05:10:33;;;;;;;7.60;2.00;;;11.70;99.90;;;;;;5085319;28;20063;-83
2023/08/30 05:12:59;;;;;;;8.10;2.03;;;11.70;99.90;;;;;;5070918;28;20040;-83
2023/08/30 05:15:26;;;;;;;6.90;2.30;;;11.60;99.90;;;;;;5086968;28;20051;-83
2023/08/30 05:17:55;;;;;;;7.10;2.08;;;11.60;99.90;;;;;;5072184;28;20405;-84
2023/08/30 05:20:22;;;;;;;4.93;2.00;;;11.60;99.90;;;;;;5073533;28;20068;-81
2023/08/30 05:22:48;;;;;;;8.45;2.80;;;11.60;99.90;;;;;;5066685;28;20048;-81
2023/08/30 05:25:15;;;;;;;6.13;2.25;;;11.60;99.90;;;;;;5093207;28;20463;-84
2023/08/30 05:27:45;;;;;;;15.68;2.47;;;11.70;99.90;;;;;;5082950;28;20094;-85
2023/08/30 05:30:12;;;;;;;11.98;2.50;;;11.70;99.90;;;;;;5075397;28;20067;-81
2023/08/30 05:32:39;;;;;;;8.90;2.78;;;11.70;99.90;;;;;;5077958;28;20040;-82
2023/08/30 05:35:16;;;;;;;12.43;3.17;;;11.80;99.90;;;;;;5078102;28;20040;-85
2023/08/30 05:38:11;;;;;;;9.27;3.00;;;11.80;99.90;;;;;;5092083;28;20040;-81
2023/08/30 05:41:02;;;;;;;6.65;2.63;;;11.90;99.90;;;;;;5077204;28;20048;-83
2023/08/30 05:43:28;;;;;;;12.80;3.35;;;12.00;99.90;;;;;;5080325;28;20052;-84
2023/08/30 05:46:01;;;;;;;8.88;2.75;;;12.00;99.90;;;;;;5094289;28;20081;-84
2023/08/30 05:48:28;;;;;;;9.15;3.00;;;12.10;99.90;;;;;;5093207;28;20047;-83
2023/08/30 05:50:55;;;;;;;12.45;2.80;;;12.10;99.90;;;;;;5093961;28;20109;-82
2023/08/30 05:53:21;;;;;;;11.48;3.03;;;12.20;99.90;;;;;;5085369;28;20063;-83
2023/08/30 05:55:48;;;;;;;7.18;2.63;;;12.20;99.90;;;;;;5088793;28;20039;-83
2023/08/30 05:58:15;;;;;;;9.05;2.38;;;12.20;99.90;;;;;;5073720;28;20036;-84
2023/08/30 06:00:42;;;;;;;6.35;2.20;;;12.20;99.90;;;;;;5073263;28;20040;-83
2023/08/30 06:03:10;;;;;;;10.18;2.20;;;12.20;99.90;;;;;;5075263;28;20043;-81
2023/08/30 06:05:37;;;;;;;11.13;2.28;;;12.30;99.90;;;;;;5084903;28;20579;-84
2023/08/30 06:08:07;;;;;;;15.38;2.55;;;12.30;99.90;;;;;;5076578;28;20043;-83
2023/08/30 06:10:34;;;;;;;6.82;2.28;;;12.30;99.90;;;;;;5075060;28;20083;-84
2023/08/30 06:13:02;;;;;;;10.85;2.50;;;12.40;99.90;;;;;;5088975;28;20098;-81
2023/08/30 06:15:29;;;;;;;11.98;2.55;;;12.40;99.90;;;;;;5085628;28;20374;-83
2023/08/30 06:17:58;;;;;;;9.13;2.58;;;12.50;99.90;;;;;;5087607;28;20127;-82
2023/08/30 06:20:25;;;;;;;8.15;2.40;;;12.50;99.90;;;;;;5072226;28;20048;-85
2023/08/30 06:22:52;;;;;;;9.43;2.10;;;12.60;99.90;;;;;;5086550;28;20064;-84
2023/08/30 06:25:18;;;;;;;6.68;2.15;;;12.60;99.90;;;;;;5095065;28;20101;-83
2023/08/30 06:27:45;;;;;;;14.48;2.00;;;12.70;99.90;;;;;;5082828;28;20102;-84
2023/08/30 06:30:12;;;;;;;8.43;2.30;;;12.70;99.90;;;;;;5087759;28;20143;-82
2023/08/30 06:32:38;;;;;;;8.48;1.98;;;12.80;99.90;;;;;;5083030;28;20048;-84
2023/08/30 06:35:05;;;;;;;12.82;2.13;;;12.90;99.90;;;;;;5077212;28;20043;-85
2023/08/30 06:37:32;;;;;;;11.68;2.38;;;13.00;99.90;;;;;;5074225;28;20538;-82
2023/08/30 06:39:59;;;;;;;12.10;1.95;;;13.20;99.90;;;;;;5086655;28;20047;-83
2023/08/30 06:42:25;;;;;;;8.07;1.98;;;13.20;99.90;;;;;;5093601;28;20066;-81
2023/08/30 06:44:52;;;;;;;9.38;2.30;;;13.30;99.90;;;;;;5082307;28;20131;-81
2023/08/30 06:47:19;;;;;;;13.27;2.42;;;13.30;99.90;;;;;;5086924;28;20533;-85
2023/08/30 06:49:46;;;;;;;7.15;2.13;;;13.30;99.90;;;;;;5075784;28;20051;-85
2023/08/30 06:52:12;;;;;;;20.98;2.45;;;13.30;99.90;;;;;;5058648;28;20079;-81
2023/08/30 06:54:39;;;;;;;12.32;2.67;;;13.50;99.90;;;;;;5036064;28;20125;-85
2023/08/30 06:59:52;;;;;;;6.85;2.30;;;13.70;99.90;;;;;;5053658;28;20056;-81
2023/08/30 07:02:19;;;;;;;8.52;2.10;;;13.80;99.90;;;;;;5066177;28;20040;-81
2023/08/30 07:04:46;;;;;;;12.32;2.08;;;14.00;99.90;;;;;;5056282;28;20464;-84
2023/08/30 07:10:16;;;;;;;10.50;2.63;;;14.30;99.90;;;;;;5061599;28;20113;-82
2023/08/30 07:12:42;;;;;;;6.40;2.10;;;14.40;99.90;;;;;;5060711;28;20041;-84
2023/08/30 07:15:09;;;;;;;10.02;2.03;;;14.50;99.90;;;;;;5049632;28;20114;-83
2023/08/30 07:17:37;;;;;;;10.00;2.28;;;14.50;99.90;;;;;;5054158;28;20112;-82
2023/08/30 07:20:19;;;;;;;8.70;2.00;;;14.50;99.90;;;;;;5059310;28;20373;-83
2023/08/30 07:22:46;;;;;;;7.75;2.08;;;14.50;99.90;;;;;;5042433;28;20044;-83
2023/08/30 07:25:13;;;;;;;9.25;2.17;;;14.60;99.90;;;;;;5051196;28;20106;-85
2023/08/30 07:30:26;;;;;;;9.43;2.38;;;14.60;99.90;;;;;;5067874;28;20064;-82
2023/08/30 07:32:53;;;;;;;9.55;2.40;;;14.60;99.90;;;;;;5067601;28;20036;-84
2023/08/30 07:35:20;;;;;;;9.77;2.38;;;14.60;99.90;;;;;;5058871;28;20486;-84
2023/08/30 07:37:47;;;;;;;11.30;2.63;;;14.60;99.90;;;;;;5070607;28;20399;-80
2023/08/30 07:40:13;;;;;;;11.07;2.08;;;14.70;99.90;;;;;;5079950;28;20132;-85
2023/08/30 07:42:40;;;;;;;10.55;2.75;;;14.90;99.90;;;;;;5040547;28;20056;-86
2023/08/30 07:45:07;;;;;;;12.05;3.00;;;15.00;99.90;;;;;;5077306;28;20106;-83
2023/08/30 07:47:35;;;;;;;10.80;2.05;;;15.10;99.90;;;;;;5076072;28;20040;-81
2023/08/30 07:50:01;;;;;;;15.77;2.30;;;15.10;99.90;;;;;;5077101;28;20052;-85
2023/08/30 07:52:28;;;;;;;8.68;1.95;;;15.10;99.90;;;;;;5058867;28;20454;-83
2023/08/30 07:55:11;;;;;;;7.28;2.25;;;15.10;99.90;;;;;;5067153;28;20041;-87
2023/08/30 07:57:39;;;;;;;8.68;2.00;;;15.20;99.90;;;;;;5053402;28;20236;-86
2023/08/30 08:00:06;;;;;;;10.40;2.92;;;15.40;99.90;;;;;;5034123;28;20101;-83
2023/08/30 08:02:37;;;;;;;5.95;1.80;;;15.40;99.90;;;;;;5092805;28;20138;-84
2023/08/30 08:05:04;;;;;;;11.68;2.28;;;15.40;99.90;;;;;;5071784;28;20471;-88
2023/08/30 08:10:16;;;;;;;11.23;2.50;;;15.40;99.90;;;;;;5056668;28;20051;-85
2023/08/30 08:12:43;;;;;;;11.68;1.80;;;15.50;99.90;;;;;;5069916;28;20104;-81
2023/08/30 08:15:10;;;;;;;10.93;2.10;;;15.50;99.90;;;;;;5073906;28;20387;-84
2023/08/30 08:17:38;;;;;;;8.40;2.10;;;15.60;99.90;;;;;;5050436;28;20382;-84
2023/08/30 08:20:05;;;;;;;8.43;2.35;;;15.60;99.90;;;;;;5053191;28;20040;-85
2023/08/30 08:22:32;;;;;;;11.23;2.58;;;15.70;99.90;;;;;;5040100;28;20037;-86
2023/08/30 08:24:59;;;;;;;8.00;1.98;;;15.90;99.90;;;;;;5056439;28;20079;-83
2023/08/30 08:30:30;;;;;;;9.82;2.35;;;16.10;99.90;;;;;;5070269;28;20107;-85
2023/08/30 08:32:57;;;;;;;11.63;2.30;;;16.10;99.90;;;;;;5055841;28;20124;-85
2023/08/30 08:35:23;;;;;;;10.40;1.90;;;16.30;99.90;;;;;;5070176;28;20124;-85
2023/08/30 08:37:52;;;;;;;7.32;2.08;;;16.30;99.90;;;;;;5065891;28;20045;-86
2023/08/30 08:40:19;;;;;;;9.13;2.20;;;16.40;99.90;;;;;;5044118;28;20463;-87
2023/08/30 08:42:58;;;;;;;10.13;2.10;;;16.60;99.90;;;;;;5060162;28;20093;-86
2023/08/30 08:45:26;;;;;;;10.60;1.80;;;16.80;99.90;;;;;;5073175;28;20068;-86
2023/08/30 08:47:53;;;;;;;12.23;2.20;;;17.00;99.90;;;;;;5037582;28;20044;-84
2023/08/30 08:50:20;;;;;;;6.70;2.05;;;16.80;99.90;;;;;;5063652;28;20055;-83
2023/08/30 08:52:47;;;;;;;9.05;2.35;;;16.70;99.90;;;;;;5093779;28;20048;-83
2023/08/30 08:55:26;;;;;;;9.48;2.08;;;16.80;99.90;;;;;;5084213;28;20036;-85
2023/08/30 09:00:46;;;;;;;11.57;2.15;;;17.00;99.90;;;;;;5088359;28;20467;-85
2023/08/30 09:03:14;;;;;;;11.40;2.00;;;17.10;99.90;;;;;;5064996;28;20032;-84
2023/08/30 09:05:42;;;;;;;9.25;2.30;;;17.00;99.90;;;;;;5095832;28;20040;-84
2023/08/30 09:08:10;;;;;;;8.38;2.25;;;17.00;99.90;;;;;;5077064;28;20101;-86
2023/08/30 09:10:36;;;;;;;8.90;2.28;;;17.10;99.90;;;;;;5084936;28;20044;-84
2023/08/30 09:13:03;;;;;;;7.55;1.95;;;17.00;99.90;;;;;;5080103;28;20119;-85
2023/08/30 09:15:30;;;;;;;9.40;2.15;;;17.10;99.90;;;;;;5095594;28;20040;-84
2023/08/30 09:17:58;;;;;;;9.90;2.10;;;17.20;99.90;;;;;;5093666;28;20104;-83
2023/08/30 09:20:25;;;;;;;10.88;2.47;;;17.50;99.90;;;;;;5063938;28;20344;-86
2023/08/30 09:22:52;;;;;;;11.45;2.08;;;17.50;99.90;;;;;;5081659;28;20114;-85
2023/08/30 09:25:19;;;;;;;7.03;1.80;;;17.80;99.90;;;;;;5088355;28;20041;-83
2023/08/30 09:27:47;;;;;;;6.90;1.88;;;17.60;99.90;;;;;;5084878;28;20124;-85
2023/08/30 09:30:14;;;;;;;9.52;2.17;;;17.70;99.90;;;;;;5080082;28;20067;-83
2023/08/30 09:32:41;;;;;;;7.43;1.90;;;18.00;99.90;;;;;;5095413;28;20040;-85
2023/08/30 09:35:08;;;;;;;10.38;2.15;;;18.00;99.90;;;;;;5092152;28;20067;-87
2023/08/30 09:37:36;;;;;;;7.25;2.00;;;18.00;99.90;;;;;;5082395;28;20035;-86
2023/08/30 09:40:03;;;;;;;8.13;2.13;;;18.10;99.90;;;;;;5095182;28;20358;-83
2023/08/30 09:42:30;;;;;;;9.68;1.95;;;18.20;99.90;;;;;;5089337;28;20041;-83
2023/08/30 09:44:57;;;;;;;11.32;2.20;;;18.30;99.90;;;;;;5075208;28;20040;-84
2023/08/30 09:47:28;;;;;;;8.10;2.65;;;18.30;99.90;;;;;;5078134;28;20051;-87
2023/08/30 09:49:55;;;;;;;16.02;2.95;;;18.40;99.90;;;;;;5082558;28;20106;-86
2023/08/30 09:52:22;;;;;;;11.05;2.00;;;18.80;99.90;;;;;;5073977;28;20053;-86
2023/08/30 09:54:49;;;;;;;7.38;1.65;;;19.10;99.90;;;;;;5094053;28;20119;-83
2023/08/30 09:57:16;;;;;;;7.88;2.05;;;19.30;99.90;;;;;;5094707;28;20032;-87
2023/08/30 09:59:43;;;;;;;12.85;2.55;;;19.30;99.90;;;;;;5090255;28;20046;-84
2023/08/30 10:02:10;;;;;;;6.43;1.85;;;19.00;99.90;;;;;;5074825;28;20097;-87
2023/08/30 10:04:37;;;;;;;9.73;2.20;;;18.80;99.90;;;;;;5091716;28;20043;-84
2023/08/30 10:07:05;;;;;;;8.90;2.30;;;19.00;99.90;;;;;;5094374;28;20381;-82
2023/08/30 10:09:32;;;;;;;9.05;2.13;;;19.20;99.90;;;;;;5093909;28;20040;-86
2023/08/30 10:12:01;;;;;;;7.28;1.80;;;19.10;99.90;;;;;;5087097;28;20041;-85
2023/08/30 10:14:28;;;;;;;9.65;1.85;;;19.50;99.90;;;;;;5056560;28;20482;-81
2023/08/30 10:19:42;;;;;;;8.50;2.10;;;19.60;99.90;;;;;;5092681;28;20047;-82
2023/08/30 10:22:14;;;;;;;7.32;2.58;;;19.60;99.90;;;;;;5081716;28;20055;-82
2023/08/30 10:24:41;;;;;;;6.13;1.30;;;19.80;99.90;;;;;;5092940;28;20036;-84
2023/08/30 10:27:28;;;;;;;9.52;1.50;;;19.90;99.90;;;;;;5081743;28;20036;-83
2023/08/30 10:29:55;;;;;;;4.85;1.30;;;20.00;99.90;;;;;;5092768;28;20053;-84
2023/08/30 10:32:22;;;;;;;8.10;1.83;;;20.20;99.90;;;;;;5080262;28;20145;-82
2023/08/30 10:34:52;;;;;;;5.38;1.50;;;20.40;99.90;;;;;;5093851;28;20366;-85
2023/08/30 10:37:19;;;;;;;6.40;1.52;;;20.60;99.90;;;;;;5079896;28;20116;-85
2023/08/30 10:39:46;;;;;;;6.68;1.70;;;20.50;99.90;;;;;;5081313;28;20043;-84
2023/08/30 10:42:13;;;;;;;5.90;1.70;;;20.20;99.90;;;;;;5092268;28;20048;-85
2023/08/30 10:44:40;;;;;;;6.85;1.40;;;19.80;99.90;;;;;;5094464;28;20055;-82
2023/08/30 10:47:16;;;;;;;5.78;1.63;;;19.80;99.90;;;;;;5089124;28;20139;-84
2023/08/30 10:49:43;;;;;;;8.13;2.05;;;19.80;99.90;;;;;;5065297;28;20427;-86
2023/08/30 10:52:09;;;;;;;7.90;2.17;;;20.10;99.90;;;;;;5058296;28;20047;-85
2023/08/30 10:54:36;;;;;;;6.90;1.77;;;20.10;99.90;;;;;;5071879;28;20122;-86
2023/08/30 10:57:03;;;;;;;7.18;1.40;;;20.20;99.90;;;;;;5056715;28;20484;-83
2023/08/30 10:59:30;;;;;;;4.75;1.30;;;20.00;99.90;;;;;;5040815;28;20459;-82
2023/08/30 11:01:56;;;;;;;15.48;2.20;;;20.50;99.90;;;;;;5040501;28;20434;-85
2023/08/30 11:04:23;;;;;;;8.95;1.75;;;21.20;99.90;;;;;;5056031;28;20116;-84
2023/08/30 11:09:36;;;;;;;10.80;1.80;;;22.40;99.90;;;;;;5059331;28;20060;-81
2023/08/30 11:12:02;;;;;;;5.00;1.60;;;21.80;99.90;;;;;;5060562;28;20041;-84
2023/08/30 11:14:29;;;;;;;18.65;5.43;;;21.70;99.90;;;;;;5045972;28;20064;-82
2023/08/30 11:19:42;;;;;;;8.93;1.95;;;22.40;99.90;;;;;;5054023;28;20470;-82
2023/08/30 11:22:09;;;;;;;4.25;1.30;;;22.70;99.90;;;;;;5060058;28;20044;-85
2023/08/30 11:24:35;;;;;;;5.07;1.52;;;23.50;99.90;;;;;;5059826;28;20139;-84
2023/08/30 11:27:02;;;;;;;8.68;1.48;;;23.40;99.90;;;;;;5077345;28;20052;-88
2023/08/30 11:29:29;;;;;;;5.65;1.50;;;22.60;99.90;;;;;;5036201;28;20036;-86
2023/08/30 11:31:57;;;;;;;8.02;1.67;;;21.80;99.90;;;;;;5061571;28;20067;-85
2023/08/30 11:34:23;;;;;;;7.88;1.70;;;21.70;99.90;;;;;;5059867;28;20356;-86
2023/08/30 11:36:50;;;;;;;6.93;1.88;;;22.40;99.90;;;;;;5060967;28;20049;-85
2023/08/30 11:39:19;;;;;;;4.85;1.23;;;22.40;99.90;;;;;;5051895;28;20103;-85
2023/08/30 11:41:46;;;;;;;6.22;1.58;;;22.20;99.90;;;;;;5071672;28;20051;-85
2023/08/30 11:44:13;;;;;;;5.10;1.45;;;22.30;99.90;;;;;;5039248;28;20487;-83
2023/08/30 11:49:25;;;;;;;5.07;1.50;;;21.50;99.90;;;;;;5065130;28;20032;-83
2023/08/30 11:51:52;;;;;;;9.57;2.30;;;21.10;99.90;;;;;;5055620;28;20059;-89
2023/08/30 11:54:19;;;;;;;5.13;1.30;;;21.30;99.90;;;;;;5073673;28;20043;-83
2023/08/30 11:56:46;;;;;;;5.38;1.27;;;21.60;99.90;;;;;;5065862;28;20517;-82
2023/08/30 11:59:13;;;;;;;5.22;1.55;;;22.40;99.90;;;;;;5062975;28;20349;-82
2023/08/30 12:01:40;;;;;;;4.38;1.30;;;22.40;99.90;;;;;;5045419;28;20467;-84
2023/08/30 12:04:06;;;;;;;4.18;1.25;;;22.00;99.90;;;;;;5046871;28;20434;-83
2023/08/30 12:06:33;;;;;;;5.03;1.30;;;21.60;99.90;;;;;;5048327;28;20045;-85
2023/08/30 12:09:00;;;;;;;9.77;1.67;;;21.40;99.90;;;;;;5067735;28;20058;-85
2023/08/30 12:11:29;;;;;;;4.35;1.48;;;21.40;99.90;;;;;;5059221;28;20415;-83
2023/08/30 12:13:55;;;;;;;4.80;1.48;;;21.20;99.90;;;;;;5076121;28;20460;-86
2023/08/30 12:16:24;;;;;;;7.60;1.60;;;20.90;99.90;;;;;;5075487;28;20101;-82
2023/08/30 12:18:52;;;;;;;7.07;1.52;;;20.70;99.90;;;;;;5063807;28;20468;-84
2023/08/30 12:21:19;;;;;;;7.78;1.50;;;20.70;99.90;;;;;;5044211;28;20041;-85
2023/08/30 12:23:46;;;;;;;5.78;1.20;;;20.70;99.90;;;;;;5052739;28;20053;-83
2023/08/30 12:26:13;;;;;;;4.05;1.30;;;20.60;99.90;;;;;;5048095;28;20051;-84
2023/08/30 12:28:41;;;;;;;4.32;1.20;;;20.50;99.90;;;;;;5053405;28;20048;-86
2023/08/30 12:31:07;;;;;;;6.00;1.25;;;20.50;99.90;;;;;;5073031;28;20047;-83
2023/08/30 12:33:34;;;;;;;6.63;1.25;;;21.20;99.90;;;;;;5025044;28;20040;-84
2023/08/30 12:36:01;;;;;;;5.78;1.33;;;22.00;99.90;;;;;;5067014;28;20532;-84
2023/08/30 12:38:29;;;;;;;6.97;1.70;;;23.20;99.90;;;;;;5024573;28;20353;-85
2023/08/30 12:40:55;;;;;;;4.13;1.23;;;24.20;99.90;;;;;;5068037;28;20082;-87
2023/08/30 12:43:22;;;;;;;4.28;1.55;;;24.70;99.90;;;;;;5039258;28;20045;-86
2023/08/30 12:45:49;;;;;;;6.72;1.50;;;24.60;99.90;;;;;;5037985;28;20041;-86
2023/08/30 12:48:18;;;;;;;6.07;1.42;;;24.90;99.90;;;;;;5038202;28;20040;-83
2023/08/30 12:50:45;;;;;;;5.22;1.55;;;24.50;99.90;;;;;;5056734;28;20084;-85
2023/08/30 12:53:12;;;;;;;5.05;1.60;;;23.90;99.90;;;;;;5058976;28;20569;-86
2023/08/30 12:55:40;;;;;;;5.15;1.52;;;23.00;99.90;;;;;;5052659;28;20044;-85
2023/08/30 12:58:08;;;;;;;4.22;1.35;;;22.30;99.90;;;;;;5047724;28;20033;-82
2023/08/30 13:00:35;;;;;;;3.70;1.10;;;21.80;99.90;;;;;;5058089;28;20363;-84
2023/08/30 13:03:03;;;;;;;3.47;1.10;;;21.60;99.90;;;;;;5054590;28;20530;-82
2023/08/30 13:05:33;;;;;;;4.07;1.42;;;21.60;99.90;;;;;;5048413;28;20047;-85
2023/08/30 13:08:01;;;;;;;2.97;0.98;;;21.50;99.90;;;;;;5060325;28;20056;-83
2023/08/30 13:10:28;;;;;;;4.70;1.45;;;21.90;99.90;;;;;;5058356;28;20040;-83
2023/08/30 13:12:55;;;;;;;3.75;1.05;;;22.80;99.90;;;;;;5056912;28;20068;-84
2023/08/30 13:15:22;;;;;;;3.40;1.10;;;22.90;99.90;;;;;;5045127;28;20553;-85
2023/08/30 13:17:50;;;;;;;9.35;1.67;;;22.80;99.90;;;;;;5057673;28;20463;-82
2023/08/30 13:20:17;;;;;;;9.05;1.65;;;22.90;99.90;;;;;;5057258;28;20051;-86